Huvudsida
METAR-TAF:

METAR-TAF

Flygplatser :

Teneriffas norra flygplats

Teneriffa, Spanien

latitud: 28-28N, longitud: 016-19W, höjd: 632 m

Aktuellt väderrapport

Denna rapport gjordes för 40 minuter sedan, klockan 12:00 UTC
Vind 3 kt varierande vindriktning
Temperatur 21°C
Fuktighet 60%
Tryck 1023 hPa
Sikt 10 km eller mer
Inga moln under 1 500 m eller inga cumulonimbus

METAR: GCXO 161200Z VRB03KT CAVOK 21/13 Q1023 NOSIG

Tid: 13:40 (12:40 UTC)

Väderprognos

Denna rapport gjordes för 4 timmar och 40 minuter sedan, klockan 08:00 UTC
Prognos gäller från 16 kl. 09 UTC till 17 kl. 09 UTC
Vind 6 kt från nordväst
Sikt 10 km eller mer
Få moln på en höjd av 1500 ft
Sannolikhet 30% :
Temporärt
från 16 kl. 19 UTC till 17 kl. 06 UTC
Sikt: 4500 m
Brutna moln på en höjd av 500 ft
dimbankar

TAF: GCXO 160800Z 1609/1709 31006KT 9999 FEW015 TX23/1614Z TN13/1706Z PROB30 TEMPO 1619/1706 4500 BCFG BKN005

Aktuella väderrapporter och prognoser från 4000 flygplatser (METAR- och TAF-rapporter).

De tillgängliga stationerna syns som gula och röda prickar på kartan.

För musen över prickarna för att se namnen på stationerna.

Klicka sedan för att få väderrapporter och prognoser.

För att ändra kartan: Klicka på de gröna knapparna med ett svart kors på för att zooma in; den gröna knappen med ett streck på för att zooma ut; eller på de gröna pilarna för angränsande kartor.


METAR-TAF: